createdAt,value
2018-10-18T00:00:58.203Z,7.90
2018-10-18T00:03:26.898Z,7.92
2018-10-18T00:05:55.478Z,7.90
2018-10-18T00:08:24.068Z,7.81
2018-10-18T00:10:52.640Z,7.80
2018-10-18T00:13:21.246Z,7.78
2018-10-18T00:15:49.867Z,7.71
2018-10-18T00:18:18.492Z,7.68
2018-10-18T00:20:47.067Z,7.65
2018-10-18T00:23:15.695Z,7.61
2018-10-18T00:25:44.318Z,7.55
2018-10-18T00:28:12.929Z,7.46
2018-10-18T00:30:41.530Z,7.40
2018-10-18T00:33:10.120Z,7.42
2018-10-18T00:35:38.739Z,7.43
2018-10-18T00:38:07.456Z,7.45
2018-10-18T00:40:36.000Z,7.47
2018-10-18T00:43:04.844Z,7.47
2018-10-18T00:45:33.449Z,7.48
2018-10-18T00:48:02.151Z,7.51
2018-10-18T00:50:30.719Z,7.42
2018-10-18T00:52:59.292Z,7.41
2018-10-18T00:55:27.911Z,7.43
2018-10-18T00:57:56.489Z,7.47
2018-10-18T01:00:27.186Z,7.47
2018-10-18T01:02:55.750Z,7.47
2018-10-18T01:05:34.549Z,7.43
2018-10-18T01:08:03.196Z,7.37
2018-10-18T01:10:31.785Z,7.35
2018-10-18T01:13:00.385Z,7.32
2018-10-18T01:15:29.004Z,7.22
2018-10-18T01:17:57.604Z,7.19
2018-10-18T01:20:26.213Z,7.16
2018-10-18T01:22:54.797Z,7.13
2018-10-18T01:25:23.420Z,7.08
2018-10-18T01:27:52.035Z,7.00
2018-10-18T01:30:20.654Z,6.96
2018-10-18T01:32:49.244Z,7.01
2018-10-18T01:35:17.871Z,7.09
2018-10-18T01:37:46.536Z,7.25
2018-10-18T01:40:15.135Z,7.41
2018-10-18T01:42:43.707Z,7.56
2018-10-18T01:45:12.324Z,7.70
2018-10-18T01:47:40.900Z,7.85
2018-10-18T01:50:10.214Z,8.00
2018-10-18T01:52:38.794Z,8.12
2018-10-18T01:55:08.062Z,8.24
2018-10-18T01:57:36.697Z,8.32
2018-10-18T02:00:06.329Z,8.40
2018-10-18T02:02:34.949Z,8.48
2018-10-18T02:05:03.560Z,8.56
2018-10-18T02:07:32.141Z,8.68
2018-10-18T02:10:00.768Z,8.91
2018-10-18T02:12:29.353Z,9.22
2018-10-18T02:14:57.967Z,9.61
2018-10-18T02:17:26.593Z,10.12
2018-10-18T02:19:55.205Z,10.47
2018-10-18T02:22:23.826Z,10.77
2018-10-18T02:24:52.459Z,11.05
2018-10-18T02:27:21.091Z,11.20
2018-10-18T02:29:49.687Z,11.29
2018-10-18T02:32:18.331Z,11.33
2018-10-18T02:34:46.944Z,11.38
2018-10-18T02:37:15.583Z,11.39
2018-10-18T02:39:44.178Z,11.45
2018-10-18T02:42:12.866Z,11.50
2018-10-18T02:44:41.435Z,11.52
2018-10-18T02:47:10.055Z,11.55
2018-10-18T02:49:38.643Z,11.54
2018-10-18T02:52:07.288Z,11.58
2018-10-18T02:54:35.878Z,11.63
2018-10-18T02:57:04.499Z,11.64
2018-10-18T02:59:33.083Z,11.66
2018-10-18T03:02:01.708Z,11.70
2018-10-18T03:04:30.303Z,11.73
2018-10-18T03:06:58.924Z,11.73
2018-10-18T03:09:27.507Z,11.77
2018-10-18T03:11:56.143Z,11.77
2018-10-18T03:14:24.755Z,11.79
2018-10-18T03:16:53.392Z,11.79
2018-10-18T03:19:22.070Z,11.79
2018-10-18T03:21:50.668Z,11.82
2018-10-18T03:24:19.444Z,11.87
2018-10-18T03:26:48.013Z,11.87
2018-10-18T03:29:16.599Z,11.87
2018-10-18T03:31:45.209Z,11.88
2018-10-18T03:34:13.853Z,11.91
2018-10-18T03:36:42.455Z,11.93
2018-10-18T03:39:11.923Z,11.96
2018-10-18T03:41:40.575Z,11.96
2018-10-18T03:44:09.160Z,11.96
2018-10-18T03:46:37.789Z,11.98
2018-10-18T03:49:06.423Z,12.01
2018-10-18T03:51:35.469Z,12.04
2018-10-18T03:54:04.119Z,12.04
2018-10-18T03:56:32.740Z,12.06
2018-10-18T03:59:01.318Z,12.09
2018-10-18T04:01:29.929Z,12.08
2018-10-18T04:03:58.502Z,12.11
2018-10-18T04:06:27.117Z,12.14
2018-10-18T04:08:55.711Z,12.15
2018-10-18T04:11:24.325Z,12.14
2018-10-18T04:13:52.903Z,12.14
2018-10-18T04:16:21.529Z,12.16
2018-10-18T04:18:50.125Z,12.16
2018-10-18T04:21:18.750Z,12.15
2018-10-18T04:23:47.345Z,12.21
2018-10-18T04:26:15.971Z,12.22
2018-10-18T04:28:44.567Z,12.23
2018-10-18T04:31:13.183Z,12.22
2018-10-18T04:33:41.780Z,12.24
2018-10-18T04:36:10.461Z,12.25
2018-10-18T04:38:39.035Z,12.30
2018-10-18T04:41:07.633Z,12.30
2018-10-18T04:43:36.258Z,12.31
2018-10-18T04:46:04.893Z,12.32
2018-10-18T04:48:33.644Z,12.33
2018-10-18T04:51:02.131Z,12.32
2018-10-18T04:53:30.749Z,12.33
2018-10-18T04:55:59.328Z,12.35
2018-10-18T04:58:27.950Z,12.39
2018-10-18T05:00:56.576Z,12.39
2018-10-18T05:03:25.187Z,12.38
2018-10-18T05:05:55.184Z,12.39
2018-10-18T05:08:24.909Z,12.41
2018-10-18T05:10:53.829Z,12.41
2018-10-18T05:13:22.432Z,12.40
2018-10-18T05:15:51.085Z,12.40
2018-10-18T05:18:20.046Z,12.39
2018-10-18T05:20:48.952Z,12.37
2018-10-18T05:23:17.564Z,12.39
2018-10-18T05:25:47.022Z,12.36
2018-10-18T05:28:15.643Z,12.36
2018-10-18T05:30:44.228Z,12.35
2018-10-18T05:33:12.854Z,12.36
2018-10-18T05:35:41.440Z,12.39
2018-10-18T05:38:10.085Z,12.39
2018-10-18T05:40:38.724Z,12.40
2018-10-18T05:43:07.396Z,12.41
2018-10-18T05:45:35.981Z,12.42
2018-10-18T05:48:04.606Z,12.42
2018-10-18T05:50:33.216Z,12.43
2018-10-18T05:53:01.908Z,12.44
2018-10-18T05:55:30.501Z,12.44
2018-10-18T05:57:59.105Z,12.46
2018-10-18T06:00:27.737Z,12.48
2018-10-18T06:02:58.127Z,12.50
2018-10-18T06:05:26.817Z,12.51
2018-10-18T06:07:55.411Z,12.54
2018-10-18T06:10:35.217Z,12.56
2018-10-18T06:13:03.812Z,12.58
2018-10-18T06:15:32.389Z,12.59
2018-10-18T06:18:00.966Z,12.61
2018-10-18T06:20:29.593Z,12.65
2018-10-18T06:22:58.339Z,12.65
2018-10-18T06:25:26.836Z,12.67
2018-10-18T06:27:55.416Z,12.71
2018-10-18T06:30:24.061Z,12.71
2018-10-18T06:32:52.658Z,12.71
2018-10-18T06:35:21.317Z,12.74
2018-10-18T06:37:49.937Z,12.76
2018-10-18T06:40:19.076Z,12.78
2018-10-18T06:42:47.693Z,12.81
2018-10-18T06:45:17.757Z,12.84
2018-10-18T06:47:46.480Z,12.88
2018-10-18T06:50:16.447Z,12.89
2018-10-18T06:52:45.064Z,12.92
2018-10-18T06:55:13.736Z,12.94
2018-10-18T06:57:43.012Z,12.98
2018-10-18T07:00:14.633Z,13.08
2018-10-18T07:02:44.004Z,13.16
2018-10-18T07:05:13.775Z,13.23
2018-10-18T07:07:43.027Z,13.28
2018-10-18T07:10:11.615Z,13.30
2018-10-18T07:12:40.757Z,13.27
2018-10-18T07:15:10.545Z,13.28
2018-10-18T07:17:40.297Z,13.32
2018-10-18T07:20:09.404Z,13.36
2018-10-18T07:22:38.855Z,13.41
2018-10-18T07:25:09.595Z,13.43
2018-10-18T07:27:38.619Z,13.46
2018-10-18T07:30:08.596Z,13.51
2018-10-18T07:32:37.261Z,13.58
2018-10-18T07:35:07.148Z,13.63
2018-10-18T07:37:35.753Z,13.71
2018-10-18T07:40:04.611Z,13.85
2018-10-18T07:42:33.220Z,14.02
2018-10-18T07:45:01.808Z,14.10
2018-10-18T07:47:30.433Z,14.10
2018-10-18T07:49:59.016Z,14.07
2018-10-18T07:52:27.604Z,13.98
2018-10-18T07:54:56.221Z,13.88
2018-10-18T07:57:24.811Z,13.82
2018-10-18T07:59:53.504Z,13.80
2018-10-18T08:02:22.058Z,13.77
2018-10-18T08:04:50.696Z,13.77
2018-10-18T08:07:19.290Z,13.77
2018-10-18T08:09:47.930Z,13.74
2018-10-18T08:12:16.525Z,13.71
2018-10-18T08:14:45.181Z,13.69
2018-10-18T08:17:14.033Z,13.64
2018-10-18T08:19:42.675Z,13.60
2018-10-18T08:22:11.296Z,13.60
2018-10-18T08:24:39.905Z,13.66
2018-10-18T08:27:08.527Z,13.80
2018-10-18T08:29:37.206Z,13.96
2018-10-18T08:32:05.986Z,14.24
2018-10-18T08:34:34.589Z,14.57
2018-10-18T08:37:03.191Z,14.78
2018-10-18T08:39:31.832Z,14.89
2018-10-18T08:42:00.446Z,14.77
2018-10-18T08:44:29.104Z,14.63
2018-10-18T08:46:57.794Z,14.58
2018-10-18T08:49:26.380Z,14.58
2018-10-18T08:51:54.950Z,14.59
2018-10-18T08:54:23.645Z,14.56
2018-10-18T08:56:52.243Z,14.54
2018-10-18T08:59:20.906Z,14.45
2018-10-18T09:01:49.481Z,14.47
2018-10-18T09:04:18.134Z,14.48
2018-10-18T09:06:46.742Z,14.45
2018-10-18T09:09:15.372Z,14.43
2018-10-18T09:11:43.965Z,14.47
2018-10-18T09:14:12.541Z,14.55
2018-10-18T09:16:41.132Z,14.62
2018-10-18T09:19:09.714Z,14.64
2018-10-18T09:21:38.349Z,14.65
2018-10-18T09:24:06.982Z,14.73
2018-10-18T09:26:35.585Z,14.72
2018-10-18T09:29:04.180Z,14.68
2018-10-18T09:31:32.791Z,14.67
2018-10-18T09:34:01.364Z,14.64
2018-10-18T09:36:29.990Z,14.61
2018-10-18T09:38:58.599Z,14.58
2018-10-18T09:41:27.259Z,14.64
2018-10-18T09:44:04.480Z,14.71
2018-10-18T09:46:34.287Z,14.82
2018-10-18T09:49:03.647Z,14.93
2018-10-18T09:51:32.261Z,15.01
2018-10-18T09:54:02.035Z,15.05
2018-10-18T09:56:31.487Z,14.93
2018-10-18T09:59:00.116Z,14.89
2018-10-18T10:01:34.097Z,14.92
2018-10-18T10:04:02.721Z,14.92
2018-10-18T10:06:31.324Z,14.91
2018-10-18T10:08:59.935Z,14.95
2018-10-18T10:11:28.555Z,14.98
2018-10-18T10:13:57.174Z,15.12
2018-10-18T10:16:25.768Z,15.15
2018-10-18T10:18:54.438Z,15.17
2018-10-18T10:21:23.014Z,15.24
2018-10-18T10:23:51.612Z,15.24
2018-10-18T10:26:20.203Z,15.32
2018-10-18T10:28:48.810Z,15.40
2018-10-18T10:31:17.449Z,15.56
2018-10-18T10:33:46.067Z,15.70
2018-10-18T10:36:14.653Z,15.83
2018-10-18T10:38:43.284Z,15.94
2018-10-18T10:41:11.883Z,15.88
2018-10-18T10:43:40.507Z,15.80
2018-10-18T10:46:09.146Z,15.75
2018-10-18T10:48:37.738Z,15.71
2018-10-18T10:51:06.347Z,15.65
2018-10-18T10:53:34.983Z,15.63
2018-10-18T10:56:03.611Z,15.55
2018-10-18T10:58:32.230Z,15.39
2018-10-18T11:01:14.868Z,15.30
2018-10-18T11:03:43.892Z,15.12
2018-10-18T11:06:12.840Z,15.08
2018-10-18T11:08:41.464Z,15.08
2018-10-18T11:11:10.490Z,15.06
2018-10-18T11:13:39.918Z,15.07
2018-10-18T11:16:08.856Z,15.17
2018-10-18T11:18:38.357Z,15.32
2018-10-18T11:21:08.273Z,15.36
2018-10-18T11:23:36.914Z,15.43
2018-10-18T11:26:05.851Z,15.49
2018-10-18T11:28:34.457Z,15.55
2018-10-18T11:31:03.139Z,15.69
2018-10-18T11:33:31.860Z,15.80
2018-10-18T11:36:00.514Z,15.91
2018-10-18T11:38:29.155Z,16.08
2018-10-18T11:40:57.793Z,16.04
2018-10-18T11:43:26.403Z,16.08
2018-10-18T11:45:55.015Z,16.26
2018-10-18T11:48:23.607Z,16.38
2018-10-18T11:50:52.214Z,16.43
2018-10-18T11:53:20.815Z,16.35
2018-10-18T11:55:49.444Z,16.30
2018-10-18T11:58:18.030Z,16.31
2018-10-18T12:00:46.675Z,16.28
2018-10-18T12:03:15.266Z,16.30
2018-10-18T12:05:43.898Z,16.31
2018-10-18T12:08:12.596Z,16.30
2018-10-18T12:10:41.176Z,16.40
2018-10-18T12:13:09.778Z,16.50
2018-10-18T12:15:38.411Z,16.42
2018-10-18T12:18:07.049Z,16.25
2018-10-18T12:20:35.673Z,16.08
2018-10-18T12:23:04.335Z,16.16
2018-10-18T12:25:32.957Z,16.31
2018-10-18T12:28:01.544Z,16.38
2018-10-18T12:30:30.140Z,16.55
2018-10-18T12:32:58.762Z,16.51
2018-10-18T12:35:27.375Z,16.54
2018-10-18T12:37:56.079Z,16.49
2018-10-18T12:40:24.745Z,16.39
2018-10-18T12:42:53.372Z,16.29
2018-10-18T12:45:21.962Z,16.34
2018-10-18T12:47:50.601Z,16.56
2018-10-18T12:50:19.202Z,16.81
2018-10-18T12:52:47.823Z,16.88
2018-10-18T12:55:16.427Z,16.80
2018-10-18T12:57:45.062Z,16.55
2018-10-18T13:00:13.794Z,16.37
2018-10-18T13:02:42.391Z,16.17
2018-10-18T13:05:11.784Z,15.99
2018-10-18T13:07:40.443Z,15.86
2018-10-18T13:10:11.127Z,15.91
2018-10-18T13:12:39.939Z,16.02
2018-10-18T13:15:09.979Z,16.03
2018-10-18T13:17:38.690Z,16.06
2018-10-18T13:20:08.315Z,15.98
2018-10-18T13:22:37.048Z,15.84
2018-10-18T13:25:07.239Z,15.67
2018-10-18T13:27:36.070Z,15.49
2018-10-18T13:30:05.053Z,15.37
2018-10-18T13:32:33.729Z,15.27
2018-10-18T13:35:02.338Z,15.31
2018-10-18T13:37:30.995Z,15.29
2018-10-18T13:39:59.579Z,15.34
2018-10-18T13:42:28.211Z,15.34
2018-10-18T13:44:56.808Z,15.18
2018-10-18T13:47:25.435Z,15.10
2018-10-18T13:49:54.062Z,15.01
2018-10-18T13:52:22.700Z,14.98
2018-10-18T13:54:51.321Z,14.91
2018-10-18T13:57:19.925Z,14.92
2018-10-18T13:59:59.835Z,14.84
2018-10-18T14:02:28.398Z,14.78
2018-10-18T14:04:57.029Z,14.70
2018-10-18T14:07:27.772Z,14.63
2018-10-18T14:09:57.186Z,14.51
2018-10-18T14:12:27.868Z,14.41
2018-10-18T14:14:57.488Z,14.32
2018-10-18T14:17:27.158Z,14.29
2018-10-18T14:19:57.244Z,14.30
2018-10-18T14:22:26.839Z,14.30
2018-10-18T14:24:56.339Z,14.30
2018-10-18T14:27:25.721Z,14.24
2018-10-18T14:29:55.237Z,14.22
2018-10-18T14:32:24.671Z,14.22
2018-10-18T14:34:54.246Z,14.21
2018-10-18T14:37:24.573Z,14.21
2018-10-18T14:39:53.259Z,14.21
2018-10-18T14:42:21.875Z,14.16
2018-10-18T14:44:51.383Z,14.12
2018-10-18T14:47:21.471Z,14.12
2018-10-18T14:49:50.099Z,14.10
2018-10-18T14:52:18.725Z,14.09
2018-10-18T14:54:47.367Z,14.10
2018-10-18T14:57:16.544Z,14.04
2018-10-18T14:59:45.213Z,13.87
2018-10-18T15:02:14.072Z,13.73
2018-10-18T15:04:42.841Z,13.60
2018-10-18T15:07:11.352Z,13.46
2018-10-18T15:09:40.015Z,13.33
2018-10-18T15:12:09.282Z,13.22
2018-10-18T15:14:37.904Z,13.13
2018-10-18T15:17:06.563Z,13.03
2018-10-18T15:19:35.206Z,12.96
2018-10-18T15:22:03.838Z,12.88
2018-10-18T15:24:32.754Z,12.82
2018-10-18T15:27:01.609Z,12.74
2018-10-18T15:29:30.027Z,12.68
2018-10-18T15:31:58.764Z,12.60
2018-10-18T15:34:27.327Z,12.52
2018-10-18T15:36:55.938Z,12.49
2018-10-18T15:39:24.600Z,12.47
2018-10-18T15:41:53.210Z,12.42
2018-10-18T15:44:21.841Z,12.38
2018-10-18T15:46:50.460Z,12.33
2018-10-18T15:49:19.054Z,12.25
2018-10-18T15:51:47.697Z,12.19
2018-10-18T15:54:16.346Z,12.14
2018-10-18T15:56:44.966Z,12.06
2018-10-18T15:59:13.613Z,11.97
2018-10-18T16:01:42.233Z,11.91
2018-10-18T16:04:10.829Z,11.82
2018-10-18T16:06:39.468Z,11.74
2018-10-18T16:09:11.373Z,11.63
2018-10-18T16:11:40.016Z,11.54
2018-10-18T16:14:08.713Z,11.48
2018-10-18T16:16:37.270Z,11.44
2018-10-18T16:19:06.506Z,11.46
2018-10-18T16:21:35.152Z,11.44
2018-10-18T16:24:03.806Z,11.44
2018-10-18T16:26:32.464Z,11.42
2018-10-18T16:29:01.187Z,11.40
2018-10-18T16:31:30.360Z,11.37
2018-10-18T16:33:58.996Z,11.30
2018-10-18T16:36:27.640Z,11.27
2018-10-18T16:38:56.329Z,11.27
2018-10-18T16:41:25.155Z,11.22
2018-10-18T16:43:53.638Z,11.15
2018-10-18T16:46:22.230Z,11.09
2018-10-18T16:48:50.867Z,11.02
2018-10-18T16:51:19.467Z,10.96
2018-10-18T16:53:48.107Z,10.90
2018-10-18T16:56:16.825Z,10.86
2018-10-18T16:58:45.427Z,10.79
2018-10-18T17:01:14.013Z,10.72
2018-10-18T17:03:42.651Z,10.67
2018-10-18T17:06:11.346Z,10.64
2018-10-18T17:08:39.923Z,10.56
2018-10-18T17:11:08.583Z,10.47
2018-10-18T17:13:37.174Z,10.35
2018-10-18T17:16:06.156Z,10.23
2018-10-18T17:18:34.761Z,10.09
2018-10-18T17:21:03.433Z,10.02
2018-10-18T17:23:32.121Z,9.89
2018-10-18T17:26:00.727Z,9.81
2018-10-18T17:28:29.331Z,9.76
2018-10-18T17:30:57.957Z,9.74
2018-10-18T17:33:26.574Z,9.71
2018-10-18T17:35:55.237Z,9.66
2018-10-18T17:38:23.867Z,9.60
2018-10-18T17:40:52.512Z,9.52
2018-10-18T17:43:21.130Z,9.41
2018-10-18T17:45:49.754Z,9.31
2018-10-18T17:48:18.404Z,9.18
2018-10-18T17:50:47.050Z,9.01
2018-10-18T17:53:15.700Z,8.79
2018-10-18T17:55:44.326Z,8.58
2018-10-18T17:58:12.966Z,8.43
2018-10-18T18:00:41.620Z,8.31
2018-10-18T18:03:10.226Z,8.24
2018-10-18T18:05:38.838Z,8.21
2018-10-18T18:08:07.551Z,8.16
2018-10-18T18:10:36.109Z,8.12
2018-10-18T18:13:04.776Z,8.09
2018-10-18T18:15:33.419Z,8.04
2018-10-18T18:18:02.054Z,7.82
2018-10-18T18:20:30.662Z,7.46
2018-10-18T18:22:59.308Z,7.24
2018-10-18T18:25:27.922Z,7.08
2018-10-18T18:27:56.521Z,6.99
2018-10-18T18:30:25.144Z,6.96
2018-10-18T18:32:53.774Z,7.01
2018-10-18T18:35:22.368Z,7.08
2018-10-18T18:37:51.046Z,7.03
2018-10-18T18:40:19.648Z,6.89
2018-10-18T18:42:48.262Z,6.74
2018-10-18T18:45:23.585Z,6.66
2018-10-18T18:47:52.273Z,6.58
2018-10-18T18:50:20.845Z,6.51
2018-10-18T18:52:49.486Z,6.41
2018-10-18T18:55:18.057Z,6.34
2018-10-18T18:57:46.665Z,6.20
2018-10-18T19:00:15.292Z,6.13
2018-10-18T19:02:43.902Z,6.03
2018-10-18T19:05:12.521Z,5.98
2018-10-18T19:07:41.132Z,5.94
2018-10-18T19:10:09.907Z,5.95
2018-10-18T19:12:38.514Z,5.91
2018-10-18T19:15:08.520Z,5.95
2018-10-18T19:17:37.578Z,5.90
2018-10-18T19:20:06.403Z,5.79
2018-10-18T19:22:35.004Z,5.72
2018-10-18T19:25:03.669Z,5.67
2018-10-18T19:27:32.241Z,5.57
2018-10-18T19:30:00.846Z,5.47
2018-10-18T19:32:29.448Z,5.39
2018-10-18T19:34:58.050Z,5.37
2018-10-18T19:37:26.639Z,5.30
2018-10-18T19:39:55.238Z,5.14
2018-10-18T19:42:23.947Z,5.10
2018-10-18T19:44:52.546Z,5.12
2018-10-18T19:47:21.140Z,5.17
2018-10-18T19:49:49.755Z,5.24
2018-10-18T19:52:18.408Z,5.30
2018-10-18T19:54:46.999Z,5.39
2018-10-18T19:57:15.582Z,5.46
2018-10-18T19:59:44.182Z,5.44
2018-10-18T20:02:12.863Z,5.30
2018-10-18T20:04:41.427Z,5.29
2018-10-18T20:07:10.038Z,5.22
2018-10-18T20:09:38.676Z,5.17
2018-10-18T20:12:07.368Z,5.02
2018-10-18T20:14:35.940Z,4.99
2018-10-18T20:17:04.583Z,4.93
2018-10-18T20:19:33.149Z,4.85
2018-10-18T20:22:01.746Z,4.82
2018-10-18T20:24:30.352Z,4.80
2018-10-18T20:26:58.978Z,4.75
2018-10-18T20:29:27.671Z,4.66
2018-10-18T20:31:56.313Z,4.58
2018-10-18T20:34:24.903Z,4.57
2018-10-18T20:36:54.304Z,4.56
2018-10-18T20:39:24.161Z,4.56
2018-10-18T20:41:52.784Z,4.60
2018-10-18T20:44:21.388Z,4.51
2018-10-18T20:46:50.102Z,4.38
2018-10-18T20:49:18.808Z,4.28
2018-10-18T20:51:47.400Z,4.13
2018-10-18T20:54:16.103Z,4.10
2018-10-18T20:56:44.667Z,4.09
2018-10-18T20:59:13.265Z,4.11
2018-10-18T21:01:41.881Z,4.01
2018-10-18T21:04:10.454Z,3.87
2018-10-18T21:06:39.227Z,3.79
2018-10-18T21:09:09.804Z,3.73
2018-10-18T21:11:38.435Z,3.66
2018-10-18T21:14:07.088Z,3.66
2018-10-18T21:16:35.682Z,3.74
2018-10-18T21:19:04.439Z,3.82
2018-10-18T21:21:33.545Z,3.92
2018-10-18T21:24:02.147Z,3.99
2018-10-18T21:26:30.786Z,4.04
2018-10-18T21:28:59.469Z,4.09
2018-10-18T21:31:28.030Z,4.10
2018-10-18T21:33:56.654Z,3.99
2018-10-18T21:36:25.250Z,3.91
2018-10-18T21:38:53.938Z,3.84
2018-10-18T21:41:22.588Z,3.76
2018-10-18T21:43:51.206Z,3.69
2018-10-18T21:46:19.844Z,3.67
2018-10-18T21:48:48.489Z,3.64
2018-10-18T21:51:17.174Z,3.58
2018-10-18T21:53:45.756Z,3.48
2018-10-18T21:56:14.355Z,3.36
2018-10-18T21:58:42.967Z,3.25
2018-10-18T22:01:11.586Z,3.18
2018-10-18T22:03:40.210Z,3.13
2018-10-18T22:06:08.816Z,3.10
2018-10-18T22:08:37.424Z,3.06
2018-10-18T22:11:06.201Z,3.03
2018-10-18T22:13:34.872Z,3.01
2018-10-18T22:16:03.464Z,3.00
2018-10-18T22:18:32.085Z,2.95
2018-10-18T22:21:00.725Z,2.94
2018-10-18T22:23:29.343Z,2.98
2018-10-18T22:25:57.971Z,2.96
2018-10-18T22:28:26.595Z,2.91
2018-10-18T22:30:55.189Z,2.85
2018-10-18T22:33:23.810Z,2.85
2018-10-18T22:35:52.409Z,2.85
2018-10-18T22:38:21.063Z,2.85
2018-10-18T22:40:49.654Z,2.88
2018-10-18T22:43:18.295Z,2.80
2018-10-18T22:45:52.177Z,2.65
2018-10-18T22:48:20.802Z,2.53
2018-10-18T22:50:49.382Z,2.51
2018-10-18T22:53:17.976Z,2.48
2018-10-18T22:55:46.595Z,2.44
2018-10-18T22:58:15.205Z,2.44
2018-10-18T23:00:49.039Z,2.46
2018-10-18T23:03:19.155Z,2.45
2018-10-18T23:05:48.414Z,2.44
2018-10-18T23:08:17.040Z,2.36
2018-10-18T23:10:46.122Z,2.30
2018-10-18T23:13:14.725Z,2.24
2018-10-18T23:15:43.356Z,2.20
2018-10-18T23:18:12.331Z,2.18
2018-10-18T23:20:41.554Z,2.20
2018-10-18T23:23:10.948Z,2.20
2018-10-18T23:25:39.889Z,2.15
2018-10-18T23:28:08.530Z,2.17
2018-10-18T23:30:37.138Z,2.15
2018-10-18T23:33:05.788Z,2.13
2018-10-18T23:35:34.435Z,2.11
2018-10-18T23:38:03.043Z,2.11
2018-10-18T23:40:31.657Z,2.14
2018-10-18T23:43:00.258Z,2.10
2018-10-18T23:45:28.880Z,2.06
2018-10-18T23:47:57.469Z,2.02
2018-10-18T23:50:26.086Z,1.98
2018-10-18T23:52:54.718Z,1.93
2018-10-18T23:55:23.317Z,1.85
2018-10-18T23:57:51.907Z,1.82
